createdAt,value
2018-08-27T00:00:22.096Z,4.00
2018-08-27T00:01:22.094Z,4.00
2018-08-27T00:02:22.093Z,4.00
2018-08-27T00:03:22.086Z,8.00
2018-08-27T00:04:22.089Z,4.00
2018-08-27T00:05:22.085Z,4.00
2018-08-27T00:06:22.082Z,4.00
2018-08-27T00:07:22.076Z,4.00
2018-08-27T00:08:22.072Z,4.00
2018-08-27T00:09:22.072Z,4.00
2018-08-27T00:10:22.069Z,4.00
2018-08-27T00:11:22.065Z,4.00
2018-08-27T00:12:22.061Z,4.00
2018-08-27T00:13:22.059Z,4.00
2018-08-27T00:14:22.056Z,4.00
2018-08-27T00:15:22.054Z,4.00
2018-08-27T00:16:22.051Z,4.00
2018-08-27T00:17:22.049Z,4.00
2018-08-27T00:18:22.045Z,4.00
2018-08-27T00:19:22.041Z,4.00
2018-08-27T00:20:22.043Z,4.00
2018-08-27T00:21:22.038Z,4.00
2018-08-27T00:22:22.034Z,4.00
2018-08-27T00:23:22.032Z,8.00
2018-08-27T00:24:22.028Z,4.00
2018-08-27T00:25:22.026Z,4.00
2018-08-27T00:26:22.024Z,4.00
2018-08-27T00:27:22.021Z,4.00
2018-08-27T00:28:22.017Z,4.00
2018-08-27T00:29:22.020Z,4.00
2018-08-27T00:30:22.012Z,8.00
2018-08-27T00:31:22.008Z,4.00
2018-08-27T00:32:22.006Z,4.00
2018-08-27T00:33:22.004Z,4.00
2018-08-27T00:34:22.000Z,4.00
2018-08-27T00:35:21.997Z,4.00
2018-08-27T00:36:21.995Z,4.00
2018-08-27T00:37:21.992Z,4.00
2018-08-27T00:38:21.990Z,4.00
2018-08-27T00:39:21.987Z,8.00
2018-08-27T00:40:21.984Z,4.00
2018-08-27T00:41:21.983Z,8.00
2018-08-27T00:42:21.980Z,4.00
2018-08-27T00:43:21.977Z,4.00
2018-08-27T00:44:21.973Z,4.00
2018-08-27T00:45:21.972Z,4.00
2018-08-27T00:46:21.973Z,8.00
2018-08-27T00:47:21.963Z,8.00
2018-08-27T00:48:21.962Z,8.00
2018-08-27T00:49:21.958Z,4.00
2018-08-27T00:50:21.955Z,4.00
2018-08-27T00:51:21.953Z,4.00
2018-08-27T00:52:21.949Z,4.00
2018-08-27T00:53:21.951Z,8.00
2018-08-27T00:54:21.947Z,4.00
2018-08-27T00:55:21.940Z,4.00
2018-08-27T00:56:21.942Z,8.00
2018-08-27T00:57:21.937Z,4.00
2018-08-27T00:58:21.939Z,4.00
2018-08-27T00:59:21.937Z,4.00
2018-08-27T01:00:21.929Z,4.00
2018-08-27T01:01:21.926Z,4.00
2018-08-27T01:02:21.925Z,8.00
2018-08-27T01:03:21.920Z,4.00
2018-08-27T01:04:21.916Z,4.00
2018-08-27T01:05:21.914Z,4.00
2018-08-27T01:06:21.909Z,4.00
2018-08-27T01:07:21.915Z,4.00
2018-08-27T01:08:21.902Z,4.00
2018-08-27T01:09:21.901Z,4.00
2018-08-27T01:10:21.902Z,4.00
2018-08-27T01:11:21.895Z,4.00
2018-08-27T01:12:21.892Z,4.00
2018-08-27T01:13:21.890Z,4.00
2018-08-27T01:14:21.885Z,4.00
2018-08-27T01:15:21.889Z,4.00
2018-08-27T01:16:21.881Z,4.00
2018-08-27T01:17:21.878Z,4.00
2018-08-27T01:18:21.873Z,4.00
2018-08-27T01:19:21.871Z,4.00
2018-08-27T01:20:21.867Z,8.00
2018-08-27T01:21:21.868Z,4.00
2018-08-27T01:22:21.872Z,4.00
2018-08-27T01:23:21.860Z,8.00
2018-08-27T01:24:21.861Z,4.00
2018-08-27T01:25:21.852Z,4.00
2018-08-27T01:26:21.857Z,4.00
2018-08-27T01:27:21.848Z,4.00
2018-08-27T01:28:21.844Z,4.00
2018-08-27T01:29:21.841Z,4.00
2018-08-27T01:30:21.840Z,4.00
2018-08-27T01:31:21.834Z,4.00
2018-08-27T01:32:21.831Z,4.00
2018-08-27T01:33:21.828Z,4.00
2018-08-27T01:34:21.828Z,4.00
2018-08-27T01:35:21.823Z,4.00
2018-08-27T01:36:21.821Z,4.00
2018-08-27T01:37:21.818Z,4.00
2018-08-27T01:38:21.816Z,4.00
2018-08-27T01:39:21.813Z,4.00
2018-08-27T01:40:21.807Z,4.00
2018-08-27T01:41:21.808Z,4.00
2018-08-27T01:42:21.803Z,4.00
2018-08-27T01:43:21.798Z,4.00
2018-08-27T01:44:21.797Z,4.00
2018-08-27T01:45:21.794Z,4.00
2018-08-27T01:46:21.788Z,4.00
2018-08-27T01:47:21.787Z,4.00
2018-08-27T01:48:21.782Z,4.00
2018-08-27T01:49:21.782Z,4.00
2018-08-27T01:50:21.776Z,4.00
2018-08-27T01:51:21.772Z,4.00
2018-08-27T01:52:21.770Z,4.00
2018-08-27T01:53:21.768Z,4.00
2018-08-27T01:54:21.765Z,4.00
2018-08-27T01:55:21.760Z,4.00
2018-08-27T01:56:21.757Z,4.00
2018-08-27T01:57:21.763Z,4.00
2018-08-27T01:58:21.750Z,4.00
2018-08-27T01:59:21.795Z,4.00
2018-08-27T02:00:21.743Z,4.00
2018-08-27T02:01:21.740Z,4.00
2018-08-27T02:02:21.741Z,4.00
2018-08-27T02:03:21.734Z,4.00
2018-08-27T02:04:21.731Z,4.00
2018-08-27T02:05:21.727Z,4.00
2018-08-27T02:06:21.727Z,4.00
2018-08-27T02:07:21.720Z,4.00
2018-08-27T02:08:21.718Z,4.00
2018-08-27T02:09:21.726Z,4.00
2018-08-27T02:10:21.711Z,4.00
2018-08-27T02:11:21.707Z,4.00
2018-08-27T02:12:21.703Z,4.00
2018-08-27T02:13:21.699Z,4.00
2018-08-27T02:14:21.698Z,4.00
2018-08-27T02:15:21.694Z,4.00
2018-08-27T02:16:21.689Z,4.00
2018-08-27T02:17:21.688Z,4.00
2018-08-27T02:18:21.683Z,4.00
2018-08-27T02:19:21.681Z,4.00
2018-08-27T02:20:21.678Z,4.00
2018-08-27T02:21:21.673Z,4.00
2018-08-27T02:22:21.670Z,4.00
2018-08-27T02:23:21.666Z,4.00
2018-08-27T02:24:21.665Z,4.00
2018-08-27T02:25:21.659Z,4.00
2018-08-27T02:26:21.660Z,4.00
2018-08-27T02:27:21.652Z,4.00
2018-08-27T02:28:21.649Z,4.00
2018-08-27T02:29:21.646Z,4.00
2018-08-27T02:30:21.645Z,4.00
2018-08-27T02:31:21.640Z,4.00
2018-08-27T02:32:21.649Z,4.00
2018-08-27T02:33:21.632Z,8.00
2018-08-27T02:34:21.630Z,4.00
2018-08-27T02:35:21.625Z,4.00
2018-08-27T02:36:21.624Z,4.00
2018-08-27T02:37:21.622Z,4.00
2018-08-27T02:38:21.615Z,4.00
2018-08-27T02:39:21.610Z,4.00
2018-08-27T02:40:21.616Z,4.00
2018-08-27T02:41:21.604Z,4.00
2018-08-27T02:42:21.601Z,4.00
2018-08-27T02:43:21.597Z,8.00
2018-08-27T02:44:21.594Z,4.00
2018-08-27T02:45:21.595Z,4.00
2018-08-27T02:46:21.590Z,4.00
2018-08-27T02:47:21.584Z,4.00
2018-08-27T02:48:21.582Z,4.00
2018-08-27T02:49:21.576Z,4.00
2018-08-27T02:50:21.572Z,4.00
2018-08-27T02:51:21.569Z,4.00
2018-08-27T02:52:21.565Z,4.00
2018-08-27T02:53:21.568Z,4.00
2018-08-27T02:54:21.559Z,4.00
2018-08-27T02:55:21.555Z,4.00
2018-08-27T02:56:21.549Z,4.00
2018-08-27T02:57:21.549Z,4.00
2018-08-27T02:58:21.543Z,4.00
2018-08-27T02:59:21.541Z,4.00
2018-08-27T03:00:21.535Z,8.00
2018-08-27T03:01:21.534Z,4.00
2018-08-27T03:02:21.529Z,4.00
2018-08-27T03:03:21.524Z,4.00
2018-08-27T03:04:21.521Z,4.00
2018-08-27T03:05:21.518Z,4.00
2018-08-27T03:06:21.514Z,4.00
2018-08-27T03:07:21.515Z,4.00
2018-08-27T03:08:21.508Z,4.00
2018-08-27T03:09:21.507Z,4.00
2018-08-27T03:10:21.498Z,4.00
2018-08-27T03:11:21.496Z,4.00
2018-08-27T03:12:21.493Z,4.00
2018-08-27T03:13:21.487Z,4.00
2018-08-27T03:14:21.485Z,4.00
2018-08-27T03:15:21.479Z,4.00
2018-08-27T03:16:21.476Z,4.00
2018-08-27T03:17:21.473Z,4.00
2018-08-27T03:18:36.456Z,4.00
2018-08-27T03:19:21.466Z,4.00
2018-08-27T03:20:21.464Z,4.00
2018-08-27T03:21:21.465Z,4.00
2018-08-27T03:22:21.455Z,4.00
2018-08-27T03:23:21.451Z,4.00
2018-08-27T03:24:21.448Z,4.00
2018-08-27T03:25:21.448Z,4.00
2018-08-27T03:26:21.440Z,4.00
2018-08-27T03:27:21.434Z,4.00
2018-08-27T03:28:21.432Z,4.00
2018-08-27T03:29:21.433Z,4.00
2018-08-27T03:30:21.427Z,8.00
2018-08-27T03:31:21.421Z,8.00
2018-08-27T03:32:21.420Z,8.00
2018-08-27T03:33:21.414Z,8.00
2018-08-27T03:34:21.412Z,8.00
2018-08-27T03:35:21.405Z,8.00
2018-08-27T03:36:21.404Z,8.00
2018-08-27T03:37:21.399Z,8.00
2018-08-27T03:38:21.397Z,8.00
2018-08-27T03:39:21.392Z,8.00
2018-08-27T03:40:21.387Z,8.00
2018-08-27T03:41:21.383Z,8.00
2018-08-27T03:42:21.384Z,8.00
2018-08-27T03:43:21.378Z,8.00
2018-08-27T03:44:21.373Z,12.00
2018-08-27T03:45:21.369Z,12.00
2018-08-27T03:46:21.368Z,12.00
2018-08-27T03:47:21.360Z,12.00
2018-08-27T03:48:21.358Z,12.00
2018-08-27T03:49:21.355Z,12.00
2018-08-27T03:50:21.349Z,12.00
2018-08-27T03:51:21.346Z,8.00
2018-08-27T03:52:21.343Z,8.00
2018-08-27T03:53:21.343Z,8.00
2018-08-27T03:54:21.335Z,12.00
2018-08-27T03:55:21.332Z,12.00
2018-08-27T03:56:21.330Z,12.00
2018-08-27T03:57:21.325Z,12.00
2018-08-27T03:58:21.324Z,12.00
2018-08-27T03:59:21.317Z,12.00
2018-08-27T04:00:21.317Z,12.00
2018-08-27T04:01:21.316Z,16.00
2018-08-27T04:02:21.307Z,8.00
2018-08-27T04:03:21.300Z,12.00
2018-08-27T04:04:21.296Z,12.00
2018-08-27T04:05:21.379Z,12.00
2018-08-27T04:06:21.291Z,16.00
2018-08-27T04:07:21.286Z,16.00
2018-08-27T04:08:21.283Z,20.00
2018-08-27T04:09:21.279Z,24.00
2018-08-27T04:10:21.276Z,24.00
2018-08-27T04:11:21.275Z,28.00
2018-08-27T04:12:21.267Z,28.00
2018-08-27T04:13:21.264Z,28.00
2018-08-27T04:14:21.262Z,32.00
2018-08-27T04:15:21.255Z,36.00
2018-08-27T04:16:21.255Z,36.00
2018-08-27T04:17:21.248Z,40.00
2018-08-27T04:18:21.245Z,44.00
2018-08-27T04:19:21.241Z,48.00
2018-08-27T04:20:21.237Z,48.00
2018-08-27T04:21:21.236Z,56.00
2018-08-27T04:22:21.230Z,60.00
2018-08-27T04:23:21.226Z,68.00
2018-08-27T04:24:21.225Z,76.00
2018-08-27T04:25:21.219Z,92.00
2018-08-27T04:26:21.216Z,100.00
2018-08-27T04:27:21.211Z,108.00
2018-08-27T04:28:21.210Z,116.00
2018-08-27T04:29:21.205Z,124.00
2018-08-27T04:30:21.200Z,132.00
2018-08-27T04:31:21.202Z,144.00
2018-08-27T04:32:21.193Z,148.00
2018-08-27T04:33:21.190Z,160.00
2018-08-27T04:34:21.187Z,172.00
2018-08-27T04:35:21.192Z,188.00
2018-08-27T04:36:21.178Z,204.00
2018-08-27T04:37:21.179Z,216.00
2018-08-27T04:38:21.182Z,228.00
2018-08-27T04:39:21.167Z,244.00
2018-08-27T04:40:21.165Z,260.00
2018-08-27T04:41:21.162Z,308.00
2018-08-27T04:42:21.171Z,348.00
2018-08-27T04:43:21.155Z,324.00
2018-08-27T04:44:21.150Z,304.00
2018-08-27T04:45:21.149Z,324.00
2018-08-27T04:46:21.144Z,380.00
2018-08-27T04:47:21.192Z,460.00
2018-08-27T04:48:21.138Z,500.00
2018-08-27T04:49:21.131Z,576.00
2018-08-27T04:50:21.128Z,680.00
2018-08-27T04:51:21.130Z,720.00
2018-08-27T04:52:21.128Z,932.00
2018-08-27T04:53:21.117Z,1468.00
2018-08-27T04:54:21.115Z,1292.00
2018-08-27T04:55:21.111Z,1248.00
2018-08-27T04:56:21.120Z,1208.00
2018-08-27T04:57:21.106Z,1208.00
2018-08-27T04:58:21.102Z,1080.00
2018-08-27T04:59:21.098Z,620.00
2018-08-27T05:00:21.097Z,540.00
2018-08-27T05:01:21.090Z,564.00
2018-08-27T05:02:21.089Z,580.00
2018-08-27T05:03:21.085Z,596.00
2018-08-27T05:04:21.083Z,652.00
2018-08-27T05:05:21.079Z,1120.00
2018-08-27T05:06:21.076Z,1696.00
2018-08-27T05:07:21.078Z,1464.00
2018-08-27T05:08:21.069Z,832.00
2018-08-27T05:09:21.069Z,616.00
2018-08-27T05:10:21.064Z,632.00
2018-08-27T05:11:21.063Z,920.00
2018-08-27T05:12:21.056Z,704.00
2018-08-27T05:13:21.053Z,716.00
2018-08-27T05:14:21.054Z,756.00
2018-08-27T05:15:21.047Z,816.00
2018-08-27T05:16:21.043Z,832.00
2018-08-27T05:17:21.040Z,884.00
2018-08-27T05:18:21.038Z,940.00
2018-08-27T05:19:21.069Z,988.00
2018-08-27T05:20:21.047Z,1040.00
2018-08-27T05:21:21.040Z,1604.00
2018-08-27T05:22:21.026Z,2912.00
2018-08-27T05:23:21.023Z,1548.00
2018-08-27T05:24:21.025Z,1276.00
2018-08-27T05:25:21.037Z,1308.00
2018-08-27T05:26:21.022Z,1368.00
2018-08-27T05:27:21.016Z,1392.00
2018-08-27T05:28:21.035Z,1428.00
2018-08-27T05:29:21.066Z,1464.00
2018-08-27T05:30:21.067Z,1492.00
2018-08-27T05:31:21.031Z,1504.00
2018-08-27T05:32:21.000Z,1508.00
2018-08-27T05:33:21.030Z,1508.00
2018-08-27T05:34:21.001Z,1528.00
2018-08-27T05:35:20.997Z,1568.00
2018-08-27T05:36:21.009Z,1624.00
2018-08-27T05:37:21.006Z,1668.00
2018-08-27T05:38:20.985Z,1708.00
2018-08-27T05:39:20.994Z,1756.00
2018-08-27T05:40:21.039Z,1816.00
2018-08-27T05:41:21.009Z,1936.00
2018-08-27T05:42:20.992Z,1928.00
2018-08-27T05:43:20.990Z,1920.00
2018-08-27T05:44:21.003Z,1960.00
2018-08-27T05:45:21.008Z,2160.00
2018-08-27T05:46:20.984Z,2440.00
2018-08-27T05:47:20.976Z,2396.00
2018-08-27T05:48:20.980Z,2760.00
2018-08-27T05:49:20.967Z,2108.00
2018-08-27T05:50:20.964Z,2056.00
2018-08-27T05:51:20.980Z,2344.00
2018-08-27T05:52:21.049Z,2216.00
2018-08-27T05:53:20.980Z,2060.00
2018-08-27T05:54:20.979Z,1932.00
2018-08-27T05:55:20.987Z,2052.00
2018-08-27T05:56:20.997Z,1960.00
2018-08-27T05:57:21.010Z,1916.00
2018-08-27T05:58:20.975Z,1752.00
2018-08-27T05:59:21.009Z,1684.00
2018-08-27T06:00:20.975Z,1604.00
2018-08-27T06:01:21.074Z,1476.00
2018-08-27T06:02:20.976Z,1436.00
2018-08-27T06:03:20.994Z,1428.00
2018-08-27T06:04:20.998Z,1444.00
2018-08-27T06:05:21.011Z,1504.00
2018-08-27T06:06:20.950Z,1560.00
2018-08-27T06:07:21.007Z,1584.00
2018-08-27T06:08:21.047Z,1560.00
2018-08-27T06:09:21.043Z,1508.00
2018-08-27T06:10:20.936Z,1472.00
2018-08-27T06:11:20.965Z,1468.00
2018-08-27T06:12:20.928Z,1480.00
2018-08-27T06:13:20.959Z,1492.00
2018-08-27T06:14:20.932Z,1484.00
2018-08-27T06:15:20.918Z,1472.00
2018-08-27T06:16:21.115Z,1460.00
2018-08-27T06:17:20.951Z,1432.00
2018-08-27T06:18:20.959Z,1392.00
2018-08-27T06:19:20.925Z,1368.00
2018-08-27T06:20:20.981Z,1404.00
2018-08-27T06:21:20.947Z,1488.00
2018-08-27T06:22:21.036Z,1560.00
2018-08-27T06:23:20.941Z,1616.00
2018-08-27T06:24:20.961Z,1632.00
2018-08-27T06:25:20.956Z,1632.00
2018-08-27T06:26:20.953Z,1612.00
2018-08-27T06:27:20.945Z,1556.00
2018-08-27T06:28:20.971Z,1496.00
2018-08-27T06:29:21.043Z,1420.00
2018-08-27T06:30:20.952Z,1364.00
2018-08-27T06:31:20.942Z,1360.00
2018-08-27T06:32:21.009Z,1380.00
2018-08-27T06:33:21.059Z,1432.00
2018-08-27T06:34:20.949Z,1468.00
2018-08-27T06:35:20.950Z,1468.00
2018-08-27T06:36:20.965Z,1452.00
2018-08-27T06:37:20.916Z,1424.00
2018-08-27T06:38:20.934Z,1420.00
2018-08-27T06:39:20.981Z,1448.00
2018-08-27T06:40:20.930Z,1484.00
2018-08-27T06:41:20.902Z,1480.00
2018-08-27T06:42:21.105Z,1440.00
2018-08-27T06:43:20.895Z,1416.00
2018-08-27T06:44:21.025Z,1380.00
2018-08-27T06:45:20.992Z,1348.00
2018-08-27T06:46:20.975Z,1392.00
2018-08-27T06:47:20.975Z,1512.00
2018-08-27T06:48:21.408Z,1668.00
2018-08-27T06:49:21.056Z,1808.00
2018-08-27T06:50:20.965Z,1892.00
2018-08-27T06:51:20.984Z,1904.00
2018-08-27T06:52:21.094Z,1844.00
2018-08-27T06:53:20.882Z,1824.00
2018-08-27T06:54:20.871Z,1840.00
2018-08-27T06:55:21.118Z,1868.00
2018-08-27T06:56:20.869Z,1892.00
2018-08-27T06:57:20.944Z,1932.00
2018-08-27T06:58:20.867Z,1968.00
2018-08-27T06:59:20.867Z,1932.00
2018-08-27T07:00:20.896Z,1884.00
2018-08-27T07:01:20.871Z,1848.00
2018-08-27T07:02:20.970Z,1940.00
2018-08-27T07:03:20.891Z,2212.00
2018-08-27T07:04:20.898Z,2480.00
2018-08-27T07:05:21.051Z,2640.00
2018-08-27T07:06:21.308Z,2768.00
2018-08-27T07:07:21.155Z,2772.00
2018-08-27T07:08:20.913Z,2692.00
2018-08-27T07:09:20.903Z,2616.00
2018-08-27T07:10:20.895Z,2612.00
2018-08-27T07:11:20.873Z,2608.00
2018-08-27T07:12:20.883Z,2708.00
2018-08-27T07:13:20.879Z,2848.00
2018-08-27T07:14:20.866Z,2772.00
2018-08-27T07:15:20.874Z,2688.00
2018-08-27T07:16:20.865Z,2692.00
2018-08-27T07:17:20.864Z,2784.00
2018-08-27T07:18:20.868Z,2900.00
2018-08-27T07:19:20.869Z,2988.00
2018-08-27T07:20:21.261Z,3088.00
2018-08-27T07:21:21.152Z,3232.00
2018-08-27T07:22:20.869Z,3344.00
2018-08-27T07:23:20.904Z,3348.00
2018-08-27T07:24:20.883Z,3244.00
2018-08-27T07:25:21.195Z,3320.00
2018-08-27T07:26:21.164Z,3512.00
2018-08-27T07:27:20.966Z,3728.00
2018-08-27T07:28:21.714Z,3676.00
2018-08-27T07:29:20.945Z,3800.00
2018-08-27T07:30:20.874Z,4008.00
2018-08-27T07:31:20.877Z,4044.00
2018-08-27T07:32:20.875Z,3976.00
2018-08-27T07:33:20.946Z,3856.00
2018-08-27T07:34:20.934Z,3612.00
2018-08-27T07:35:20.893Z,3448.00
2018-08-27T07:36:21.026Z,3380.00
2018-08-27T07:37:20.916Z,3384.00
2018-08-27T07:38:20.942Z,3496.00
2018-08-27T07:39:20.913Z,3568.00
2018-08-27T07:40:20.926Z,3612.00
2018-08-27T07:41:20.886Z,3548.00
2018-08-27T07:42:20.886Z,3480.00
2018-08-27T07:43:21.826Z,3528.00
2018-08-27T07:44:20.938Z,3656.00
2018-08-27T07:45:20.915Z,3668.00
2018-08-27T07:46:20.893Z,3528.00
2018-08-27T07:47:20.876Z,3312.00
2018-08-27T07:48:20.885Z,3080.00
2018-08-27T07:49:20.879Z,2940.00
2018-08-27T07:50:20.971Z,2948.00
2018-08-27T07:51:21.902Z,3012.00
2018-08-27T07:52:20.883Z,2956.00
2018-08-27T07:53:20.917Z,2852.00
2018-08-27T07:54:20.930Z,2992.00
2018-08-27T07:55:20.910Z,3332.00
2018-08-27T07:56:20.951Z,3748.00
2018-08-27T07:57:20.927Z,4096.00
2018-08-27T07:58:20.931Z,4240.00
2018-08-27T07:59:20.887Z,4008.00
2018-08-27T08:00:20.924Z,3828.00
2018-08-27T08:01:20.906Z,3740.00
2018-08-27T08:02:20.905Z,3836.00
2018-08-27T08:03:20.898Z,4040.00
2018-08-27T08:04:20.925Z,4088.00
2018-08-27T08:05:20.916Z,3924.00
2018-08-27T08:06:20.903Z,3704.00
2018-08-27T08:07:21.083Z,3444.00
2018-08-27T08:08:20.913Z,3032.00
2018-08-27T08:09:20.938Z,2688.00
2018-08-27T08:10:21.326Z,2496.00
2018-08-27T08:11:21.805Z,2452.00
2018-08-27T08:12:21.810Z,2400.00
2018-08-27T08:13:21.253Z,2332.00
2018-08-27T08:14:20.987Z,2300.00
2018-08-27T08:15:20.906Z,2352.00
2018-08-27T08:16:20.921Z,2392.00
2018-08-27T08:17:21.806Z,2392.00
2018-08-27T08:18:20.929Z,2416.00
2018-08-27T08:19:20.939Z,2524.00
2018-08-27T08:20:20.921Z,2848.00
2018-08-27T08:21:20.925Z,3256.00
2018-08-27T08:22:20.923Z,3444.00
2018-08-27T08:23:21.072Z,3608.00
2018-08-27T08:24:21.083Z,3552.00
2018-08-27T08:25:21.097Z,3632.00
2018-08-27T08:26:20.925Z,3636.00
2018-08-27T08:27:20.927Z,3548.00
2018-08-27T08:28:20.933Z,3540.00
2018-08-27T08:29:20.961Z,3528.00
2018-08-27T08:30:20.930Z,3620.00
2018-08-27T08:31:20.991Z,3776.00
2018-08-27T08:32:21.148Z,3756.00
2018-08-27T08:33:21.084Z,3728.00
2018-08-27T08:34:20.943Z,3908.00
2018-08-27T08:35:20.935Z,4144.00
2018-08-27T08:36:20.941Z,4400.00
2018-08-27T08:37:20.941Z,4596.00
2018-08-27T08:38:20.977Z,4596.00
2018-08-27T08:39:21.139Z,4672.00
2018-08-27T08:40:20.952Z,4748.00
2018-08-27T08:41:21.125Z,4756.00
2018-08-27T08:42:21.012Z,4808.00
2018-08-27T08:43:20.946Z,4808.00
2018-08-27T08:44:20.944Z,4720.00
2018-08-27T08:45:20.953Z,4632.00
2018-08-27T08:46:20.967Z,4720.00
2018-08-27T08:47:21.003Z,4476.00
2018-08-27T08:48:20.964Z,4224.00
2018-08-27T08:49:20.958Z,4160.00
2018-08-27T08:50:20.973Z,4112.00
2018-08-27T08:51:20.963Z,4208.00
2018-08-27T08:52:20.976Z,4820.00
2018-08-27T08:53:21.004Z,4936.00
2018-08-27T08:54:20.996Z,5308.00
2018-08-27T08:55:20.966Z,5668.00
2018-08-27T08:56:20.973Z,6072.00
2018-08-27T08:57:21.185Z,5932.00
2018-08-27T08:58:21.019Z,5776.00
2018-08-27T08:59:20.990Z,5220.00
2018-08-27T09:00:21.017Z,4960.00
2018-08-27T09:01:21.237Z,4724.00
2018-08-27T09:02:21.009Z,4544.00
2018-08-27T09:03:21.002Z,4520.00
2018-08-27T09:04:21.020Z,4792.00
2018-08-27T09:05:21.018Z,5060.00
2018-08-27T09:06:21.082Z,5260.00
2018-08-27T09:07:21.019Z,5264.00
2018-08-27T09:08:21.170Z,5268.00
2018-08-27T09:09:21.030Z,5228.00
2018-08-27T09:10:21.013Z,4968.00
2018-08-27T09:11:21.003Z,4852.00
2018-08-27T09:12:21.051Z,4824.00
2018-08-27T09:13:21.083Z,4848.00
2018-08-27T09:14:21.006Z,4876.00
2018-08-27T09:15:21.017Z,4704.00
2018-08-27T09:16:21.021Z,4584.00
2018-08-27T09:17:21.255Z,4428.00
2018-08-27T09:18:21.039Z,4468.00
2018-08-27T09:19:21.035Z,4696.00
2018-08-27T09:20:21.045Z,4560.00
2018-08-27T09:21:21.028Z,4588.00
2018-08-27T09:22:21.149Z,4420.00
2018-08-27T09:23:21.244Z,4128.00
2018-08-27T09:24:21.048Z,3928.00
2018-08-27T09:25:21.046Z,3760.00
2018-08-27T09:26:21.072Z,3864.00
2018-08-27T09:27:22.049Z,3896.00
2018-08-27T09:28:21.174Z,3936.00
2018-08-27T09:29:21.060Z,4088.00
2018-08-27T09:30:21.283Z,4148.00
2018-08-27T09:31:21.069Z,4024.00
2018-08-27T09:32:21.567Z,3892.00
2018-08-27T09:33:21.057Z,3792.00
2018-08-27T09:34:21.064Z,3760.00
2018-08-27T09:35:21.068Z,3780.00
2018-08-27T09:36:21.071Z,3980.00
2018-08-27T09:37:21.067Z,4032.00
2018-08-27T09:38:21.078Z,4332.00
2018-08-27T09:39:21.166Z,5008.00
2018-08-27T09:40:21.074Z,5764.00
2018-08-27T09:41:21.076Z,6096.00
2018-08-27T09:42:21.079Z,5864.00
2018-08-27T09:43:21.081Z,5892.00
2018-08-27T09:44:21.092Z,6072.00
2018-08-27T09:45:21.086Z,5944.00
2018-08-27T09:46:21.176Z,5652.00
2018-08-27T09:47:21.118Z,5864.00
2018-08-27T09:48:21.187Z,5916.00
2018-08-27T09:49:21.123Z,5796.00
2018-08-27T09:50:21.205Z,5548.00
2018-08-27T09:51:21.202Z,5516.00
2018-08-27T09:52:21.216Z,4836.00
2018-08-27T09:53:21.120Z,4136.00
2018-08-27T09:54:21.156Z,3500.00
2018-08-27T09:55:21.170Z,3156.00
2018-08-27T09:56:21.215Z,2968.00
2018-08-27T09:57:21.177Z,2988.00
2018-08-27T09:58:21.234Z,3044.00
2018-08-27T09:59:21.124Z,3000.00
2018-08-27T10:00:21.390Z,2864.00
2018-08-27T10:01:21.168Z,2692.00
2018-08-27T10:02:21.210Z,2556.00
2018-08-27T10:03:21.214Z,2468.00
2018-08-27T10:04:21.210Z,2392.00
2018-08-27T10:05:21.197Z,2292.00
2018-08-27T10:06:21.239Z,2176.00
2018-08-27T10:07:21.204Z,2072.00
2018-08-27T10:08:21.207Z,2004.00
2018-08-27T10:09:21.198Z,1916.00
2018-08-27T10:10:21.202Z,1848.00
2018-08-27T10:11:21.337Z,1788.00
2018-08-27T10:12:21.297Z,1732.00
2018-08-27T10:13:21.296Z,1712.00
2018-08-27T10:14:21.185Z,1700.00
2018-08-27T10:15:21.238Z,1712.00
2018-08-27T10:16:21.272Z,1740.00
2018-08-27T10:17:21.199Z,1820.00
2018-08-27T10:18:21.213Z,1900.00
2018-08-27T10:19:21.221Z,1956.00
2018-08-27T10:20:21.222Z,1972.00
2018-08-27T10:21:21.414Z,1984.00
2018-08-27T10:22:21.385Z,2024.00
2018-08-27T10:23:21.264Z,2060.00
2018-08-27T10:24:21.263Z,2092.00
2018-08-27T10:25:21.948Z,2104.00
2018-08-27T10:26:21.437Z,2148.00
2018-08-27T10:27:21.286Z,2256.00
2018-08-27T10:28:21.270Z,2420.00
2018-08-27T10:29:21.231Z,2540.00
2018-08-27T10:30:21.280Z,2776.00
2018-08-27T10:31:21.281Z,3104.00
2018-08-27T10:32:21.225Z,3448.00
2018-08-27T10:33:21.255Z,3732.00
2018-08-27T10:34:21.235Z,3852.00
2018-08-27T10:35:21.265Z,4052.00
2018-08-27T10:36:21.283Z,4228.00
2018-08-27T10:37:21.378Z,4936.00
2018-08-27T10:38:21.246Z,5640.00
2018-08-27T10:39:21.263Z,5848.00
2018-08-27T10:40:21.296Z,5676.00
2018-08-27T10:41:21.264Z,5260.00
2018-08-27T10:42:21.265Z,5012.00
2018-08-27T10:43:21.272Z,4864.00
2018-08-27T10:44:21.332Z,5068.00
2018-08-27T10:45:21.249Z,5452.00
2018-08-27T10:46:21.303Z,5632.00
2018-08-27T10:47:21.277Z,5144.00
2018-08-27T10:48:21.306Z,4660.00
2018-08-27T10:49:21.440Z,4188.00
2018-08-27T10:50:21.912Z,4220.00
2018-08-27T10:51:21.581Z,4200.00
2018-08-27T10:52:21.275Z,4044.00
2018-08-27T10:53:21.384Z,3980.00
2018-08-27T10:54:21.319Z,4028.00
2018-08-27T10:55:21.285Z,4276.00
2018-08-27T10:56:21.325Z,5004.00
2018-08-27T10:57:21.311Z,6008.00
2018-08-27T10:58:21.379Z,6976.00
2018-08-27T10:59:21.294Z,6728.00
2018-08-27T11:00:21.298Z,6540.00
2018-08-27T11:01:21.296Z,7264.00
2018-08-27T11:02:21.305Z,6116.00
2018-08-27T11:03:21.405Z,5948.00
2018-08-27T11:04:21.372Z,6492.00
2018-08-27T11:05:21.312Z,7368.00
2018-08-27T11:06:21.308Z,7184.00
2018-08-27T11:07:21.310Z,6608.00
2018-08-27T11:08:21.331Z,6608.00
2018-08-27T11:09:21.329Z,6744.00
2018-08-27T11:10:21.353Z,6512.00
2018-08-27T11:11:21.320Z,5836.00
2018-08-27T11:12:21.327Z,5820.00
2018-08-27T11:13:21.338Z,5476.00
2018-08-27T11:14:21.328Z,5336.00
2018-08-27T11:15:21.331Z,5828.00
2018-08-27T11:16:21.339Z,6504.00
2018-08-27T11:17:21.340Z,7024.00
2018-08-27T11:18:21.344Z,7040.00
2018-08-27T11:19:21.376Z,6916.00
2018-08-27T11:20:21.476Z,5864.00
2018-08-27T11:21:21.508Z,5548.00
2018-08-27T11:22:21.371Z,5396.00
2018-08-27T11:23:21.360Z,5156.00
2018-08-27T11:24:21.393Z,5192.00
2018-08-27T11:25:21.369Z,4984.00
2018-08-27T11:26:21.393Z,4700.00
2018-08-27T11:27:21.875Z,4688.00
2018-08-27T11:28:21.384Z,4600.00
2018-08-27T11:29:21.423Z,4616.00
2018-08-27T11:30:21.410Z,4856.00
2018-08-27T11:31:21.381Z,4832.00
2018-08-27T11:32:21.401Z,4376.00
2018-08-27T11:33:21.429Z,4056.00
2018-08-27T11:34:21.395Z,4180.00
2018-08-27T11:35:21.393Z,4368.00
2018-08-27T11:36:21.398Z,4360.00
2018-08-27T11:37:21.398Z,4352.00
2018-08-27T11:38:21.409Z,4372.00
2018-08-27T11:39:21.483Z,4492.00
2018-08-27T11:40:21.415Z,4764.00
2018-08-27T11:41:21.414Z,4940.00
2018-08-27T11:42:21.427Z,4620.00
2018-08-27T11:43:21.437Z,4096.00
2018-08-27T11:44:21.422Z,3652.00
2018-08-27T11:45:21.433Z,3424.00
2018-08-27T11:46:21.457Z,3208.00
2018-08-27T11:47:21.432Z,3264.00
2018-08-27T11:48:21.433Z,3224.00
2018-08-27T11:49:21.456Z,3132.00
2018-08-27T11:50:21.527Z,3008.00
2018-08-27T11:51:21.560Z,2820.00
2018-08-27T11:52:21.454Z,2756.00
2018-08-27T11:53:21.458Z,2764.00
2018-08-27T11:54:21.462Z,2776.00
2018-08-27T11:55:21.457Z,2660.00
2018-08-27T11:56:21.465Z,2592.00
2018-08-27T11:57:21.462Z,2504.00
2018-08-27T11:58:21.728Z,2428.00
2018-08-27T11:59:21.477Z,2400.00
2018-08-27T12:00:21.473Z,2412.00
2018-08-27T12:01:21.480Z,2576.00
2018-08-27T12:02:21.483Z,2688.00
2018-08-27T12:03:21.494Z,2652.00
2018-08-27T12:04:21.488Z,2832.00
2018-08-27T12:05:21.551Z,3020.00
2018-08-27T12:06:21.501Z,3112.00
2018-08-27T12:07:21.495Z,3232.00
2018-08-27T12:08:21.496Z,3496.00
2018-08-27T12:09:21.501Z,3796.00
2018-08-27T12:10:21.506Z,3996.00
2018-08-27T12:11:21.505Z,4064.00
2018-08-27T12:12:21.531Z,4112.00
2018-08-27T12:13:21.556Z,4240.00
2018-08-27T12:14:21.516Z,4596.00
2018-08-27T12:15:21.515Z,4912.00
2018-08-27T12:16:21.563Z,4812.00
2018-08-27T12:17:21.522Z,4724.00
2018-08-27T12:18:21.545Z,4792.00
2018-08-27T12:19:21.527Z,4824.00
2018-08-27T12:20:21.537Z,4952.00
2018-08-27T12:21:21.540Z,4900.00
2018-08-27T12:22:21.538Z,4608.00
2018-08-27T12:23:21.541Z,4588.00
2018-08-27T12:24:21.541Z,4940.00
2018-08-27T12:25:21.554Z,5080.00
2018-08-27T12:26:21.548Z,4812.00
2018-08-27T12:27:21.554Z,4676.00
2018-08-27T12:28:21.902Z,4568.00
2018-08-27T12:29:21.797Z,4484.00
2018-08-27T12:30:21.561Z,4348.00